sensor_id;sensor_type;location;lat;lon;timestamp;pressure;altitude;pressure_sealevel;temperature;humidity
25130;BME280;13308;50.860;13.664;2024-02-26T06:17:46;95394.53;;;-1.22;100.00
25130;BME280;13308;50.860;13.664;2024-02-26T06:20:12;95402.63;;;-1.22;100.00
25130;BME280;13308;50.860;13.664;2024-02-26T06:22:40;95396.50;;;-1.12;100.00
25130;BME280;13308;50.860;13.664;2024-02-26T06:25:06;95402.34;;;-1.03;100.00
25130;BME280;13308;50.860;13.664;2024-02-26T06:27:32;95392.69;;;-1.00;100.00
25130;BME280;13308;50.860;13.664;2024-02-26T06:29:58;95398.94;;;-0.93;100.00
25130;BME280;13308;50.860;13.664;2024-02-26T06:32:23;95400.13;;;-0.87;100.00
25130;BME280;13308;50.860;13.664;2024-02-26T06:34:48;95399.78;;;-0.75;100.00
25130;BME280;13308;50.860;13.664;2024-02-26T06:37:13;95399.00;;;-0.72;100.00
25130;BME280;13308;50.860;13.664;2024-02-26T06:39:39;95398.63;;;-0.67;100.00
25130;BME280;13308;50.860;13.664;2024-02-26T06:42:04;95399.09;;;-0.54;100.00
25130;BME280;13308;50.860;13.664;2024-02-26T06:44:30;95398.34;;;-0.41;100.00
25130;BME280;13308;50.860;13.664;2024-02-26T06:47:00;95391.00;;;-0.40;100.00
25130;BME280;13308;50.860;13.664;2024-02-26T06:49:26;95392.97;;;-0.27;100.00
25130;BME280;13308;50.860;13.664;2024-02-26T06:51:52;95397.66;;;-0.17;100.00
25130;BME280;13308;50.860;13.664;2024-02-26T06:54:17;95406.94;;;-0.08;100.00
25130;BME280;13308;50.860;13.664;2024-02-26T06:56:43;95394.56;;;-0.02;100.00
25130;BME280;13308;50.860;13.664;2024-02-26T06:59:08;95398.44;;;0.08;100.00
25130;BME280;13308;50.860;13.664;2024-02-26T07:01:33;95393.03;;;0.22;100.00
25130;BME280;13308;50.860;13.664;2024-02-26T07:03:58;95392.28;;;0.25;100.00
25130;BME280;13308;50.860;13.664;2024-02-26T07:06:24;95389.94;;;0.41;100.00
25130;BME280;13308;50.860;13.664;2024-02-26T07:08:50;95394.19;;;0.56;100.00
25130;BME280;13308;50.860;13.664;2024-02-26T07:11:15;95394.56;;;0.79;100.00
25130;BME280;13308;50.860;13.664;2024-02-26T07:13:40;95400.75;;;0.76;100.00
25130;BME280;13308;50.860;13.664;2024-02-26T07:16:09;95398.38;;;0.95;100.00
25130;BME280;13308;50.860;13.664;2024-02-26T07:18:34;95397.59;;;0.95;100.00
25130;BME280;13308;50.860;13.664;2024-02-26T07:21:02;95394.91;;;1.02;100.00
25130;BME280;13308;50.860;13.664;2024-02-26T07:23:27;95388.25;;;1.17;100.00
25130;BME280;13308;50.860;13.664;2024-02-26T07:25:52;95390.53;;;1.25;100.00
25130;BME280;13308;50.860;13.664;2024-02-26T07:28:18;95392.44;;;1.39;100.00
25130;BME280;13308;50.860;13.664;2024-02-26T07:30:43;95399.72;;;1.63;100.00
25130;BME280;13308;50.860;13.664;2024-02-26T07:33:09;95397.31;;;1.79;100.00
25130;BME280;13308;50.860;13.664;2024-02-26T07:35:34;95406.53;;;1.95;100.00
25130;BME280;13308;50.860;13.664;2024-02-26T07:38:01;95396.34;;;2.10;100.00
25130;BME280;13308;50.860;13.664;2024-02-26T07:40:26;95399.31;;;2.29;100.00
25130;BME280;13308;50.860;13.664;2024-02-26T07:42:52;95410.00;;;2.54;100.00
25130;BME280;13308;50.860;13.664;2024-02-26T07:45:17;95401.34;;;2.66;100.00
25130;BME280;13308;50.860;13.664;2024-02-26T07:47:45;95406.22;;;2.85;100.00
25130;BME280;13308;50.860;13.664;2024-02-26T07:50:11;95411.41;;;3.13;100.00
25130;BME280;13308;50.860;13.664;2024-02-26T07:52:37;95408.50;;;3.27;100.00
25130;BME280;13308;50.860;13.664;2024-02-26T07:55:02;95405.13;;;3.53;100.00
25130;BME280;13308;50.860;13.664;2024-02-26T07:57:28;95405.69;;;3.71;100.00
25130;BME280;13308;50.860;13.664;2024-02-26T07:59:53;95396.06;;;3.89;100.00
25130;BME280;13308;50.860;13.664;2024-02-26T08:02:18;95404.00;;;4.37;100.00
25130;BME280;13308;50.860;13.664;2024-02-26T08:04:44;95418.56;;;4.76;100.00
25130;BME280;13308;50.860;13.664;2024-02-26T08:07:09;95406.06;;;5.02;100.00
25130;BME280;13308;50.860;13.664;2024-02-26T08:09:34;95411.69;;;5.34;100.00
25130;BME280;13308;50.860;13.664;2024-02-26T08:12:00;95406.69;;;5.52;100.00
25130;BME280;13308;50.860;13.664;2024-02-26T08:14:25;95414.81;;;5.75;100.00
25130;BME280;13308;50.860;13.664;2024-02-26T08:16:50;95416.78;;;5.94;100.00
25130;BME280;13308;50.860;13.664;2024-02-26T08:19:16;95410.56;;;6.29;100.00
25130;BME280;13308;50.860;13.664;2024-02-26T08:21:42;95415.84;;;6.55;100.00
25130;BME280;13308;50.860;13.664;2024-02-26T08:24:08;95408.84;;;6.70;100.00
25130;BME280;13308;50.860;13.664;2024-02-26T08:26:33;95413.09;;;6.87;100.00
25130;BME280;13308;50.860;13.664;2024-02-26T08:28:58;95430.66;;;7.06;100.00
25130;BME280;13308;50.860;13.664;2024-02-26T08:31:23;95429.69;;;7.28;100.00
25130;BME280;13308;50.860;13.664;2024-02-26T08:33:49;95429.88;;;7.66;100.00
25130;BME280;13308;50.860;13.664;2024-02-26T08:36:14;95423.81;;;7.87;100.00
25130;BME280;13308;50.860;13.664;2024-02-26T08:38:39;95432.72;;;8.32;100.00
25130;BME280;13308;50.860;13.664;2024-02-26T08:41:05;95436.72;;;8.80;100.00
25130;BME280;13308;50.860;13.664;2024-02-26T08:43:30;95444.59;;;9.28;100.00
25130;BME280;13308;50.860;13.664;2024-02-26T08:45:57;95440.25;;;9.52;100.00
25130;BME280;13308;50.860;13.664;2024-02-26T08:48:22;95446.63;;;9.83;100.00
25130;BME280;13308;50.860;13.664;2024-02-26T08:50:47;95438.47;;;10.35;100.00
25130;BME280;13308;50.860;13.664;2024-02-26T08:53:13;95441.69;;;10.64;100.00
25130;BME280;13308;50.860;13.664;2024-02-26T08:55:38;95440.69;;;10.49;100.00
25130;BME280;13308;50.860;13.664;2024-02-26T08:58:03;95441.31;;;10.84;100.00
25130;BME280;13308;50.860;13.664;2024-02-26T09:00:29;95444.06;;;11.23;100.00
25130;BME280;13308;50.860;13.664;2024-02-26T09:02:54;95447.16;;;11.34;100.00
25130;BME280;13308;50.860;13.664;2024-02-26T09:05:19;95440.22;;;12.05;100.00
25130;BME280;13308;50.860;13.664;2024-02-26T09:07:45;95444.63;;;12.48;100.00
25130;BME280;13308;50.860;13.664;2024-02-26T09:10:11;95452.75;;;12.42;100.00
25130;BME280;13308;50.860;13.664;2024-02-26T09:12:37;95445.69;;;12.41;98.44
25130;BME280;13308;50.860;13.664;2024-02-26T09:15:06;95452.63;;;12.37;97.42
25130;BME280;13308;50.860;13.664;2024-02-26T09:17:31;95454.81;;;12.83;95.33
25130;BME280;13308;50.860;13.664;2024-02-26T09:19:56;95463.09;;;13.01;94.26
25130;BME280;13308;50.860;13.664;2024-02-26T09:22:22;95460.16;;;13.37;93.02
25130;BME280;13308;50.860;13.664;2024-02-26T09:24:48;95458.31;;;13.90;88.14
25130;BME280;13308;50.860;13.664;2024-02-26T09:27:15;95456.38;;;14.43;86.15
25130;BME280;13308;50.860;13.664;2024-02-26T09:29:40;95462.41;;;14.85;83.82
25130;BME280;13308;50.860;13.664;2024-02-26T09:32:06;95465.84;;;14.95;80.32
25130;BME280;13308;50.860;13.664;2024-02-26T09:34:31;95472.03;;;14.32;68.90
25130;BME280;13308;50.860;13.664;2024-02-26T09:36:56;95480.94;;;14.50;67.03
25130;BME280;13308;50.860;13.664;2024-02-26T09:39:22;95472.06;;;14.46;63.69
25130;BME280;13308;50.860;13.664;2024-02-26T09:41:48;95468.78;;;14.33;63.54
25130;BME280;13308;50.860;13.664;2024-02-26T09:44:20;95479.59;;;14.08;63.91
25130;BME280;13308;50.860;13.664;2024-02-26T09:46:47;95485.25;;;14.13;63.77
25130;BME280;13308;50.860;13.664;2024-02-26T09:49:15;95478.94;;;13.89;64.11
25130;BME280;13308;50.860;13.664;2024-02-26T09:51:41;95473.59;;;13.86;65.47
25130;BME280;13308;50.860;13.664;2024-02-26T09:54:07;95482.94;;;14.35;67.99
25130;BME280;13308;50.860;13.664;2024-02-26T09:56:34;95477.81;;;14.72;71.88
25130;BME280;13308;50.860;13.664;2024-02-26T09:59:00;95482.03;;;14.67;72.71
25130;BME280;13308;50.860;13.664;2024-02-26T10:01:27;95482.31;;;14.69;71.67
25130;BME280;13308;50.860;13.664;2024-02-26T10:03:56;95484.13;;;15.45;72.34
25130;BME280;13308;50.860;13.664;2024-02-26T10:06:24;95486.59;;;15.43;70.54
25130;BME280;13308;50.860;13.664;2024-02-26T10:08:51;95492.22;;;15.97;69.43
25130;BME280;13308;50.860;13.664;2024-02-26T10:11:16;95492.44;;;16.34;66.16
25130;BME280;13308;50.860;13.664;2024-02-26T10:13:42;95495.00;;;16.57;65.78
25130;BME280;13308;50.860;13.664;2024-02-26T10:16:07;95501.47;;;16.94;62.88
25130;BME280;13308;50.860;13.664;2024-02-26T10:18:48;95496.06;;;16.85;64.56
25130;BME280;13308;50.860;13.664;2024-02-26T10:21:18;95494.16;;;17.53;62.31
25130;BME280;13308;50.860;13.664;2024-02-26T10:23:44;95493.09;;;17.51;60.95
25130;BME280;13308;50.860;13.664;2024-02-26T10:26:13;95492.41;;;17.30;61.15
25130;BME280;13308;50.860;13.664;2024-02-26T10:28:43;95486.94;;;17.10;60.81
25130;BME280;13308;50.860;13.664;2024-02-26T10:31:09;95479.88;;;16.89;61.36
25130;BME280;13308;50.860;13.664;2024-02-26T10:33:38;95483.25;;;16.28;62.41
25130;BME280;13308;50.860;13.664;2024-02-26T10:36:04;95496.94;;;16.51;63.34
25130;BME280;13308;50.860;13.664;2024-02-26T10:38:30;95500.00;;;16.53;64.03
25130;BME280;13308;50.860;13.664;2024-02-26T10:40:56;95495.00;;;16.37;63.71
25130;BME280;13308;50.860;13.664;2024-02-26T10:43:21;95498.06;;;16.19;64.59
25130;BME280;13308;50.860;13.664;2024-02-26T10:45:46;95492.78;;;16.41;65.02
25130;BME280;13308;50.860;13.664;2024-02-26T10:48:13;95504.44;;;16.05;65.32
25130;BME280;13308;50.860;13.664;2024-02-26T10:50:40;95503.31;;;16.77;64.43
25130;BME280;13308;50.860;13.664;2024-02-26T10:53:13;95498.25;;;16.76;62.45
25130;BME280;13308;50.860;13.664;2024-02-26T10:55:40;95504.22;;;16.43;62.71
25130;BME280;13308;50.860;13.664;2024-02-26T10:58:08;95509.25;;;16.25;63.81
25130;BME280;13308;50.860;13.664;2024-02-26T11:00:34;95518.16;;;16.29;63.75
25130;BME280;13308;50.860;13.664;2024-02-26T11:03:02;95515.75;;;16.56;63.26
25130;BME280;13308;50.860;13.664;2024-02-26T11:05:28;95510.16;;;16.56;64.50
25130;BME280;13308;50.860;13.664;2024-02-26T11:07:54;95515.09;;;16.67;64.54
25130;BME280;13308;50.860;13.664;2024-02-26T11:10:20;95521.84;;;16.60;65.52
25130;BME280;13308;50.860;13.664;2024-02-26T11:12:47;95512.25;;;16.61;64.63
25130;BME280;13308;50.860;13.664;2024-02-26T11:15:13;95508.34;;;16.33;64.74
25130;BME280;13308;50.860;13.664;2024-02-26T11:17:39;95497.91;;;16.48;65.11
25130;BME280;13308;50.860;13.664;2024-02-26T11:20:10;95496.75;;;16.55;65.42
25130;BME280;13308;50.860;13.664;2024-02-26T11:22:38;95497.50;;;16.55;65.04
25130;BME280;13308;50.860;13.664;2024-02-26T11:25:03;95503.97;;;16.67;63.95
25130;BME280;13308;50.860;13.664;2024-02-26T11:27:35;95505.59;;;16.79;65.34
25130;BME280;13308;50.860;13.664;2024-02-26T11:30:03;95505.25;;;16.91;65.96
25130;BME280;13308;50.860;13.664;2024-02-26T11:32:30;95504.31;;;16.74;63.84
25130;BME280;13308;50.860;13.664;2024-02-26T11:34:57;95506.81;;;16.72;64.20
25130;BME280;13308;50.860;13.664;2024-02-26T11:37:23;95497.09;;;16.62;61.78
25130;BME280;13308;50.860;13.664;2024-02-26T11:39:51;95496.22;;;16.36;63.03
25130;BME280;13308;50.860;13.664;2024-02-26T11:42:16;95496.44;;;16.33;65.42
25130;BME280;13308;50.860;13.664;2024-02-26T11:44:42;95492.28;;;16.23;66.26
25130;BME280;13308;50.860;13.664;2024-02-26T11:47:12;95499.13;;;16.42;64.81
25130;BME280;13308;50.860;13.664;2024-02-26T11:49:37;95505.09;;;16.55;64.25
25130;BME280;13308;50.860;13.664;2024-02-26T11:52:06;95496.81;;;16.40;64.73
25130;BME280;13308;50.860;13.664;2024-02-26T11:55:08;95505.28;;;16.31;62.71
25130;BME280;13308;50.860;13.664;2024-02-26T12:00:12;95512.44;;;16.18;63.63
25130;BME280;13308;50.860;13.664;2024-02-26T12:02:47;95509.63;;;15.98;62.92
25130;BME280;13308;50.860;13.664;2024-02-26T12:05:16;95506.72;;;15.52;64.17
25130;BME280;13308;50.860;13.664;2024-02-26T12:07:44;95506.94;;;15.34;65.21
25130;BME280;13308;50.860;13.664;2024-02-26T12:10:22;95513.06;;;15.09;65.57
25130;BME280;13308;50.860;13.664;2024-02-26T12:12:53;95507.50;;;14.80;67.53
25130;BME280;13308;50.860;13.664;2024-02-26T12:15:19;95514.00;;;14.63;67.82
25130;BME280;13308;50.860;13.664;2024-02-26T12:17:48;95508.78;;;14.41;68.95
25130;BME280;13308;50.860;13.664;2024-02-26T12:20:16;95511.91;;;14.11;67.03
25130;BME280;13308;50.860;13.664;2024-02-26T12:22:45;95520.34;;;14.16;69.80
25130;BME280;13308;50.860;13.664;2024-02-26T12:25:10;95514.63;;;13.96;71.66
25130;BME280;13308;50.860;13.664;2024-02-26T12:27:36;95515.09;;;13.95;71.25
25130;BME280;13308;50.860;13.664;2024-02-26T12:30:03;95521.97;;;13.76;71.30
25130;BME280;13308;50.860;13.664;2024-02-26T12:32:28;95520.34;;;13.37;72.37
25130;BME280;13308;50.860;13.664;2024-02-26T12:34:54;95522.97;;;13.31;74.25
25130;BME280;13308;50.860;13.664;2024-02-26T12:37:19;95525.78;;;13.22;75.23
25130;BME280;13308;50.860;13.664;2024-02-26T12:39:45;95522.44;;;13.00;76.40
25130;BME280;13308;50.860;13.664;2024-02-26T12:42:11;95521.22;;;13.01;76.19
25130;BME280;13308;50.860;13.664;2024-02-26T12:44:39;95526.91;;;12.98;74.84
25130;BME280;13308;50.860;13.664;2024-02-26T12:47:04;95515.72;;;12.74;76.11
25130;BME280;13308;50.860;13.664;2024-02-26T12:49:31;95518.81;;;12.49;75.34
25130;BME280;13308;50.860;13.664;2024-02-26T12:51:56;95511.16;;;12.26;77.08
25130;BME280;13308;50.860;13.664;2024-02-26T12:54:35;95520.34;;;12.05;78.21
25130;BME280;13308;50.860;13.664;2024-02-26T12:57:05;95509.31;;;11.96;79.02
25130;BME280;13308;50.860;13.664;2024-02-26T12:59:32;95514.19;;;11.92;78.84
25130;BME280;13308;50.860;13.664;2024-02-26T13:01:59;95522.63;;;11.98;79.77
25130;BME280;13308;50.860;13.664;2024-02-26T13:04:28;95522.78;;;11.94;80.51
25130;BME280;13308;50.860;13.664;2024-02-26T13:06:54;95523.25;;;11.84;80.56
25130;BME280;13308;50.860;13.664;2024-02-26T13:09:19;95516.94;;;11.83;81.76
25130;BME280;13308;50.860;13.664;2024-02-26T13:11:55;95526.97;;;12.08;77.63
25130;BME280;13308;50.860;13.664;2024-02-26T13:14:21;95530.72;;;11.65;77.80
25130;BME280;13308;50.860;13.664;2024-02-26T13:16:56;95534.19;;;11.17;80.40
25130;BME280;13308;50.860;13.664;2024-02-26T13:19:22;95542.00;;;10.88;83.46
25130;BME280;13308;50.860;13.664;2024-02-26T13:21:47;95535.09;;;10.62;85.32
25130;BME280;13308;50.860;13.664;2024-02-26T13:24:13;95534.97;;;10.44;86.24
25130;BME280;13308;50.860;13.664;2024-02-26T13:26:39;95541.78;;;10.52;87.09
25130;BME280;13308;50.860;13.664;2024-02-26T13:29:05;95539.97;;;10.58;84.36
25130;BME280;13308;50.860;13.664;2024-02-26T13:31:30;95541.72;;;10.43;87.31
25130;BME280;13308;50.860;13.664;2024-02-26T13:33:55;95541.53;;;10.59;86.44
25130;BME280;13308;50.860;13.664;2024-02-26T13:36:24;95546.97;;;10.50;85.66
25130;BME280;13308;50.860;13.664;2024-02-26T13:38:53;95544.22;;;10.50;86.02
25130;BME280;13308;50.860;13.664;2024-02-26T13:41:20;95550.00;;;10.43;86.25
25130;BME280;13308;50.860;13.664;2024-02-26T13:43:46;95557.03;;;10.44;84.92
25130;BME280;13308;50.860;13.664;2024-02-26T13:46:11;95559.63;;;10.60;83.07
25130;BME280;13308;50.860;13.664;2024-02-26T13:48:39;95562.53;;;10.44;83.97
25130;BME280;13308;50.860;13.664;2024-02-26T13:51:04;95556.50;;;10.58;83.83
25130;BME280;13308;50.860;13.664;2024-02-26T13:53:29;95562.84;;;10.46;81.70
25130;BME280;13308;50.860;13.664;2024-02-26T13:55:55;95564.22;;;10.42;81.48
25130;BME280;13308;50.860;13.664;2024-02-26T13:58:21;95560.09;;;10.46;82.35
25130;BME280;13308;50.860;13.664;2024-02-26T14:00:49;95560.19;;;10.55;83.36
25130;BME280;13308;50.860;13.664;2024-02-26T14:03:14;95563.91;;;10.61;82.02
25130;BME280;13308;50.860;13.664;2024-02-26T14:05:39;95558.44;;;10.70;79.22
25130;BME280;13308;50.860;13.664;2024-02-26T14:08:06;95571.34;;;10.73;77.89
25130;BME280;13308;50.860;13.664;2024-02-26T14:10:31;95566.00;;;10.57;76.59
25130;BME280;13308;50.860;13.664;2024-02-26T14:12:57;95573.56;;;10.44;79.02
25130;BME280;13308;50.860;13.664;2024-02-26T14:15:23;95585.66;;;10.25;77.42
25130;BME280;13308;50.860;13.664;2024-02-26T14:17:50;95579.66;;;10.39;77.59
25130;BME280;13308;50.860;13.664;2024-02-26T14:20:22;95573.97;;;10.21;79.81
25130;BME280;13308;50.860;13.664;2024-02-26T14:22:48;95587.69;;;10.12;79.10
25130;BME280;13308;50.860;13.664;2024-02-26T14:25:14;95591.75;;;10.20;79.71
25130;BME280;13308;50.860;13.664;2024-02-26T14:27:39;95589.66;;;9.99;79.29
25130;BME280;13308;50.860;13.664;2024-02-26T14:30:05;95599.91;;;10.11;78.86
25130;BME280;13308;50.860;13.664;2024-02-26T14:32:30;95599.59;;;9.97;81.58
25130;BME280;13308;50.860;13.664;2024-02-26T14:35:00;95598.25;;;10.01;82.07
25130;BME280;13308;50.860;13.664;2024-02-26T14:37:25;95603.66;;;9.92;82.79
25130;BME280;13308;50.860;13.664;2024-02-26T14:39:50;95616.13;;;9.84;82.19
25130;BME280;13308;50.860;13.664;2024-02-26T14:42:17;95627.78;;;10.01;82.62
25130;BME280;13308;50.860;13.664;2024-02-26T14:44:43;95628.81;;;9.94;83.43
25130;BME280;13308;50.860;13.664;2024-02-26T14:47:08;95634.31;;;9.94;81.65
25130;BME280;13308;50.860;13.664;2024-02-26T14:49:34;95639.81;;;9.82;83.21
25130;BME280;13308;50.860;13.664;2024-02-26T14:51:59;95638.28;;;9.56;84.40
25130;BME280;13308;50.860;13.664;2024-02-26T14:54:24;95651.94;;;9.59;83.75
25130;BME280;13308;50.860;13.664;2024-02-26T14:56:50;95648.19;;;9.53;84.24
25130;BME280;13308;50.860;13.664;2024-02-26T14:59:15;95660.19;;;9.72;83.54
25130;BME280;13308;50.860;13.664;2024-02-26T15:01:40;95656.66;;;9.59;85.32
25130;BME280;13308;50.860;13.664;2024-02-26T15:04:06;95650.28;;;9.74;84.29
25130;BME280;13308;50.860;13.664;2024-02-26T15:06:31;95648.66;;;9.64;84.10
25130;BME280;13308;50.860;13.664;2024-02-26T15:08:56;95650.19;;;9.40;85.76
25130;BME280;13308;50.860;13.664;2024-02-26T15:11:22;95647.53;;;9.49;85.60
25130;BME280;13308;50.860;13.664;2024-02-26T15:13:47;95644.44;;;9.47;85.45
25130;BME280;13308;50.860;13.664;2024-02-26T15:16:19;95650.19;;;9.40;85.99
25130;BME280;13308;50.860;13.664;2024-02-26T15:18:47;95643.97;;;9.24;87.09
25130;BME280;13308;50.860;13.664;2024-02-26T15:21:13;95642.47;;;9.35;87.24
25130;BME280;13308;50.860;13.664;2024-02-26T15:23:40;95642.00;;;9.24;88.35
25130;BME280;13308;50.860;13.664;2024-02-26T15:26:05;95642.53;;;9.19;87.97
25130;BME280;13308;50.860;13.664;2024-02-26T15:28:30;95639.34;;;9.33;87.10
25130;BME280;13308;50.860;13.664;2024-02-26T15:30:55;95645.97;;;9.23;89.01
25130;BME280;13308;50.860;13.664;2024-02-26T15:33:21;95651.69;;;9.16;88.12
25130;BME280;13308;50.860;13.664;2024-02-26T15:35:47;95652.88;;;9.15;88.56
25130;BME280;13308;50.860;13.664;2024-02-26T15:38:12;95660.47;;;9.11;88.31
25130;BME280;13308;50.860;13.664;2024-02-26T15:40:38;95656.81;;;9.14;89.26
25130;BME280;13308;50.860;13.664;2024-02-26T15:43:04;95657.38;;;9.09;89.57
25130;BME280;13308;50.860;13.664;2024-02-26T15:45:29;95664.75;;;9.12;91.28
25130;BME280;13308;50.860;13.664;2024-02-26T15:47:57;95664.44;;;9.10;92.08
25130;BME280;13308;50.860;13.664;2024-02-26T15:50:23;95665.50;;;9.13;91.89
25130;BME280;13308;50.860;13.664;2024-02-26T15:52:48;95676.97;;;9.11;92.75
25130;BME280;13308;50.860;13.664;2024-02-26T15:55:14;95679.47;;;9.06;94.29
25130;BME280;13308;50.860;13.664;2024-02-26T15:57:41;95676.25;;;8.95;96.62
25130;BME280;13308;50.860;13.664;2024-02-26T16:00:07;95674.13;;;8.86;98.27
25130;BME280;13308;50.860;13.664;2024-02-26T16:02:38;95677.44;;;8.81;99.18
25130;BME280;13308;50.860;13.664;2024-02-26T16:05:04;95674.41;;;8.76;100.00
25130;BME280;13308;50.860;13.664;2024-02-26T16:07:53;95684.81;;;8.68;100.00
25130;BME280;13308;50.860;13.664;2024-02-26T16:10:19;95674.03;;;8.61;100.00
25130;BME280;13308;50.860;13.664;2024-02-26T16:12:49;95688.84;;;8.52;100.00
25130;BME280;13308;50.860;13.664;2024-02-26T16:15:17;95685.16;;;8.42;100.00
25130;BME280;13308;50.860;13.664;2024-02-26T16:17:43;95693.16;;;8.37;100.00
25130;BME280;13308;50.860;13.664;2024-02-26T16:20:17;95697.28;;;8.29;100.00
25130;BME280;13308;50.860;13.664;2024-02-26T16:22:44;95703.78;;;8.18;100.00
25130;BME280;13308;50.860;13.664;2024-02-26T16:25:10;95703.63;;;8.10;100.00
25130;BME280;13308;50.860;13.664;2024-02-26T16:27:35;95708.31;;;7.93;100.00
25130;BME280;13308;50.860;13.664;2024-02-26T16:30:03;95711.06;;;7.77;100.00
25130;BME280;13308;50.860;13.664;2024-02-26T16:32:30;95707.41;;;7.64;100.00
25130;BME280;13308;50.860;13.664;2024-02-26T16:34:57;95713.13;;;7.54;100.00
25130;BME280;13308;50.860;13.664;2024-02-26T16:37:24;95718.94;;;7.40;100.00
25130;BME280;13308;50.860;13.664;2024-02-26T16:39:49;95721.97;;;7.26;100.00
25130;BME280;13308;50.860;13.664;2024-02-26T16:42:14;95723.25;;;7.21;100.00
25130;BME280;13308;50.860;13.664;2024-02-26T16:44:40;95729.44;;;7.06;100.00
25130;BME280;13308;50.860;13.664;2024-02-26T16:47:05;95732.47;;;6.92;100.00
25130;BME280;13308;50.860;13.664;2024-02-26T16:49:31;95728.66;;;6.86;100.00
25130;BME280;13308;50.860;13.664;2024-02-26T16:51:56;95738.25;;;6.74;100.00
25130;BME280;13308;50.860;13.664;2024-02-26T16:54:22;95735.44;;;6.58;100.00
25130;BME280;13308;50.860;13.664;2024-02-26T16:56:47;95742.06;;;6.38;100.00
25130;BME280;13308;50.860;13.664;2024-02-26T16:59:13;95750.16;;;6.22;100.00
25130;BME280;13308;50.860;13.664;2024-02-26T17:01:39;95746.91;;;5.77;100.00
25130;BME280;13308;50.860;13.664;2024-02-26T17:04:04;95751.00;;;5.66;100.00
25130;BME280;13308;50.860;13.664;2024-02-26T17:06:29;95752.66;;;5.60;100.00
25130;BME280;13308;50.860;13.664;2024-02-26T17:08:55;95759.56;;;5.68;100.00
25130;BME280;13308;50.860;13.664;2024-02-26T17:11:21;95771.13;;;5.79;100.00
25130;BME280;13308;50.860;13.664;2024-02-26T17:13:49;95763.66;;;5.83;100.00
25130;BME280;13308;50.860;13.664;2024-02-26T17:16:14;95765.63;;;5.82;100.00
25130;BME280;13308;50.860;13.664;2024-02-26T17:18:40;95765.22;;;5.84;100.00
25130;BME280;13308;50.860;13.664;2024-02-26T17:21:05;95773.31;;;5.91;100.00
25130;BME280;13308;50.860;13.664;2024-02-26T17:23:32;95778.06;;;5.87;100.00
25130;BME280;13308;50.860;13.664;2024-02-26T17:25:58;95786.63;;;5.89;100.00
25130;BME280;13308;50.860;13.664;2024-02-26T17:28:26;95778.84;;;5.87;100.00
25130;BME280;13308;50.860;13.664;2024-02-26T17:30:52;95787.47;;;5.86;100.00
25130;BME280;13308;50.860;13.664;2024-02-26T17:33:17;95786.72;;;5.82;100.00
25130;BME280;13308;50.860;13.664;2024-02-26T17:35:43;95790.66;;;5.81;100.00
25130;BME280;13308;50.860;13.664;2024-02-26T17:38:09;95802.78;;;5.80;100.00
25130;BME280;13308;50.860;13.664;2024-02-26T17:40:35;95807.81;;;5.85;100.00
25130;BME280;13308;50.860;13.664;2024-02-26T17:43:01;95808.16;;;5.87;100.00
25130;BME280;13308;50.860;13.664;2024-02-26T17:45:26;95793.00;;;5.79;100.00
25130;BME280;13308;50.860;13.664;2024-02-26T17:47:52;95804.69;;;5.83;100.00
25130;BME280;13308;50.860;13.664;2024-02-26T17:50:18;95807.09;;;5.77;100.00
25130;BME280;13308;50.860;13.664;2024-02-26T17:52:44;95802.06;;;5.72;100.00
25130;BME280;13308;50.860;13.664;2024-02-26T17:55:10;95809.97;;;5.67;100.00
25130;BME280;13308;50.860;13.664;2024-02-26T17:57:35;95808.63;;;5.78;100.00
25130;BME280;13308;50.860;13.664;2024-02-26T18:00:00;95818.81;;;5.78;100.00
25130;BME280;13308;50.860;13.664;2024-02-26T18:02:26;95817.44;;;5.93;100.00
25130;BME280;13308;50.860;13.664;2024-02-26T18:04:51;95818.66;;;5.92;100.00
25130;BME280;13308;50.860;13.664;2024-02-26T18:07:16;95817.81;;;5.95;100.00
25130;BME280;13308;50.860;13.664;2024-02-26T18:09:42;95817.91;;;5.88;100.00
25130;BME280;13308;50.860;13.664;2024-02-26T18:12:08;95824.22;;;5.85;100.00
25130;BME280;13308;50.860;13.664;2024-02-26T18:14:34;95825.34;;;5.87;100.00
25130;BME280;13308;50.860;13.664;2024-02-26T18:16:59;95827.34;;;5.83;100.00
25130;BME280;13308;50.860;13.664;2024-02-26T18:19:25;95827.47;;;5.73;100.00
25130;BME280;13308;50.860;13.664;2024-02-26T18:21:50;95826.69;;;5.72;100.00
25130;BME280;13308;50.860;13.664;2024-02-26T18:24:15;95824.78;;;5.69;100.00
25130;BME280;13308;50.860;13.664;2024-02-26T18:26:44;95820.22;;;5.59;100.00
25130;BME280;13308;50.860;13.664;2024-02-26T18:29:09;95826.84;;;5.62;100.00
25130;BME280;13308;50.860;13.664;2024-02-26T18:31:34;95830.03;;;5.57;100.00
25130;BME280;13308;50.860;13.664;2024-02-26T18:34:00;95830.13;;;5.50;100.00
25130;BME280;13308;50.860;13.664;2024-02-26T18:36:25;95841.22;;;5.36;100.00
25130;BME280;13308;50.860;13.664;2024-02-26T18:38:51;95837.31;;;5.37;100.00
25130;BME280;13308;50.860;13.664;2024-02-26T18:41:23;95832.72;;;5.27;100.00
25130;BME280;13308;50.860;13.664;2024-02-26T18:43:52;95838.38;;;5.13;100.00
25130;BME280;13308;50.860;13.664;2024-02-26T18:46:18;95836.81;;;5.12;100.00
25130;BME280;13308;50.860;13.664;2024-02-26T18:48:43;95839.16;;;5.10;100.00
25130;BME280;13308;50.860;13.664;2024-02-26T18:51:10;95840.81;;;5.00;100.00
25130;BME280;13308;50.860;13.664;2024-02-26T18:53:36;95840.88;;;4.97;100.00
25130;BME280;13308;50.860;13.664;2024-02-26T18:56:03;95842.28;;;5.08;100.00
25130;BME280;13308;50.860;13.664;2024-02-26T18:58:29;95834.66;;;4.93;100.00
25130;BME280;13308;50.860;13.664;2024-02-26T19:00:54;95848.31;;;4.93;100.00
25130;BME280;13308;50.860;13.664;2024-02-26T19:03:19;95850.16;;;5.03;100.00
25130;BME280;13308;50.860;13.664;2024-02-26T19:05:45;95847.47;;;4.99;100.00